sensor_id;sensor_type;location;lat;lon;timestamp;P1;durP1;ratioP1;P2;durP2;ratioP2
75760;SDS011;64373;46.136;8.830;2023-07-09T00:01:55;3.88;;;3.33;;
75760;SDS011;64373;46.136;8.830;2023-07-09T00:04:21;4.22;;;3.08;;
75760;SDS011;64373;46.136;8.830;2023-07-09T00:06:47;4.15;;;3.13;;
75760;SDS011;64373;46.136;8.830;2023-07-09T00:09:16;4.10;;;3.50;;
75760;SDS011;64373;46.136;8.830;2023-07-09T00:11:44;3.47;;;3.05;;
75760;SDS011;64373;46.136;8.830;2023-07-09T00:14:11;3.80;;;2.92;;
75760;SDS011;64373;46.136;8.830;2023-07-09T00:16:38;3.90;;;2.95;;
75760;SDS011;64373;46.136;8.830;2023-07-09T00:19:04;3.90;;;2.70;;
75760;SDS011;64373;46.136;8.830;2023-07-09T00:21:35;3.53;;;2.70;;
75760;SDS011;64373;46.136;8.830;2023-07-09T00:24:01;4.47;;;2.90;;
75760;SDS011;64373;46.136;8.830;2023-07-09T00:26:32;3.90;;;2.63;;
75760;SDS011;64373;46.136;8.830;2023-07-09T00:28:58;3.92;;;3.20;;
75760;SDS011;64373;46.136;8.830;2023-07-09T00:31:24;4.18;;;3.20;;
75760;SDS011;64373;46.136;8.830;2023-07-09T00:33:51;4.43;;;3.17;;
75760;SDS011;64373;46.136;8.830;2023-07-09T00:36:26;3.42;;;2.90;;
75760;SDS011;64373;46.136;8.830;2023-07-09T00:38:54;3.90;;;2.75;;
75760;SDS011;64373;46.136;8.830;2023-07-09T00:41:21;4.00;;;2.83;;
75760;SDS011;64373;46.136;8.830;2023-07-09T00:43:48;3.78;;;2.90;;
75760;SDS011;64373;46.136;8.830;2023-07-09T00:48:51;3.75;;;2.75;;
75760;SDS011;64373;46.136;8.830;2023-07-09T00:51:43;3.13;;;2.53;;
75760;SDS011;64373;46.136;8.830;2023-07-09T00:54:23;3.58;;;2.70;;
75760;SDS011;64373;46.136;8.830;2023-07-09T00:56:55;4.10;;;2.83;;
75760;SDS011;64373;46.136;8.830;2023-07-09T00:59:24;2.92;;;2.40;;
75760;SDS011;64373;46.136;8.830;2023-07-09T01:01:50;3.13;;;2.60;;
75760;SDS011;64373;46.136;8.830;2023-07-09T01:04:18;3.05;;;2.42;;
75760;SDS011;64373;46.136;8.830;2023-07-09T01:06:50;4.35;;;2.72;;
75760;SDS011;64373;46.136;8.830;2023-07-09T01:09:17;3.28;;;2.60;;
75760;SDS011;64373;46.136;8.830;2023-07-09T01:11:43;3.38;;;3.08;;
75760;SDS011;64373;46.136;8.830;2023-07-09T01:14:10;3.25;;;2.90;;
75760;SDS011;64373;46.136;8.830;2023-07-09T01:16:48;3.50;;;2.67;;
75760;SDS011;64373;46.136;8.830;2023-07-09T01:19:22;4.15;;;2.80;;
75760;SDS011;64373;46.136;8.830;2023-07-09T01:21:59;3.67;;;3.28;;
75760;SDS011;64373;46.136;8.830;2023-07-09T01:29:54;3.88;;;3.00;;
75760;SDS011;64373;46.136;8.830;2023-07-09T01:32:21;4.10;;;2.90;;
75760;SDS011;64373;46.136;8.830;2023-07-09T01:34:48;3.33;;;2.80;;
75760;SDS011;64373;46.136;8.830;2023-07-09T01:37:19;4.28;;;3.13;;
75760;SDS011;64373;46.136;8.830;2023-07-09T01:39:47;4.65;;;3.33;;
75760;SDS011;64373;46.136;8.830;2023-07-09T01:42:14;3.95;;;2.95;;
75760;SDS011;64373;46.136;8.830;2023-07-09T01:44:42;4.22;;;3.22;;
75760;SDS011;64373;46.136;8.830;2023-07-09T01:47:08;4.25;;;3.30;;
75760;SDS011;64373;46.136;8.830;2023-07-09T01:49:34;4.93;;;3.42;;
75760;SDS011;64373;46.136;8.830;2023-07-09T01:52:00;3.80;;;3.20;;
75760;SDS011;64373;46.136;8.830;2023-07-09T01:54:30;4.60;;;3.30;;
75760;SDS011;64373;46.136;8.830;2023-07-09T01:57:12;3.83;;;3.22;;
75760;SDS011;64373;46.136;8.830;2023-07-09T01:59:44;4.00;;;3.03;;
75760;SDS011;64373;46.136;8.830;2023-07-09T02:02:10;4.13;;;3.05;;
75760;SDS011;64373;46.136;8.830;2023-07-09T02:04:50;4.00;;;2.80;;
75760;SDS011;64373;46.136;8.830;2023-07-09T02:07:17;3.65;;;2.97;;
75760;SDS011;64373;46.136;8.830;2023-07-09T02:09:43;4.07;;;2.75;;
75760;SDS011;64373;46.136;8.830;2023-07-09T02:12:09;3.55;;;2.90;;
75760;SDS011;64373;46.136;8.830;2023-07-09T02:14:35;3.45;;;2.70;;
75760;SDS011;64373;46.136;8.830;2023-07-09T02:17:01;3.30;;;2.90;;
75760;SDS011;64373;46.136;8.830;2023-07-09T02:19:28;5.30;;;2.97;;
75760;SDS011;64373;46.136;8.830;2023-07-09T02:21:56;3.33;;;2.97;;
75760;SDS011;64373;46.136;8.830;2023-07-09T02:24:26;3.92;;;3.00;;
75760;SDS011;64373;46.136;8.830;2023-07-09T02:26:56;3.20;;;2.60;;
75760;SDS011;64373;46.136;8.830;2023-07-09T02:29:23;4.18;;;3.08;;
75760;SDS011;64373;46.136;8.830;2023-07-09T02:31:50;3.90;;;2.92;;
75760;SDS011;64373;46.136;8.830;2023-07-09T02:34:17;3.88;;;2.90;;
75760;SDS011;64373;46.136;8.830;2023-07-09T02:36:44;3.13;;;2.72;;
75760;SDS011;64373;46.136;8.830;2023-07-09T02:39:10;4.55;;;3.30;;
75760;SDS011;64373;46.136;8.830;2023-07-09T02:41:38;3.83;;;3.08;;
75760;SDS011;64373;46.136;8.830;2023-07-09T02:44:04;3.25;;;2.65;;
75760;SDS011;64373;46.136;8.830;2023-07-09T02:46:30;3.25;;;2.58;;
75760;SDS011;64373;46.136;8.830;2023-07-09T02:48:55;3.17;;;2.70;;
75760;SDS011;64373;46.136;8.830;2023-07-09T02:51:21;3.47;;;2.90;;
75760;SDS011;64373;46.136;8.830;2023-07-09T02:53:47;3.28;;;2.63;;
75760;SDS011;64373;46.136;8.830;2023-07-09T02:56:13;3.08;;;2.72;;
75760;SDS011;64373;46.136;8.830;2023-07-09T02:58:38;3.95;;;2.72;;
75760;SDS011;64373;46.136;8.830;2023-07-09T03:01:04;3.42;;;2.22;;
75760;SDS011;64373;46.136;8.830;2023-07-09T03:03:30;3.15;;;2.70;;
75760;SDS011;64373;46.136;8.830;2023-07-09T03:05:56;3.45;;;2.60;;
75760;SDS011;64373;46.136;8.830;2023-07-09T03:08:22;3.45;;;2.90;;
75760;SDS011;64373;46.136;8.830;2023-07-09T03:10:47;4.70;;;3.00;;
75760;SDS011;64373;46.136;8.830;2023-07-09T03:13:13;4.25;;;3.17;;
75760;SDS011;64373;46.136;8.830;2023-07-09T03:15:38;3.47;;;2.80;;
75760;SDS011;64373;46.136;8.830;2023-07-09T03:18:04;3.22;;;2.72;;
75760;SDS011;64373;46.136;8.830;2023-07-09T03:20:29;2.67;;;2.35;;
75760;SDS011;64373;46.136;8.830;2023-07-09T03:22:55;4.13;;;2.97;;
75760;SDS011;64373;46.136;8.830;2023-07-09T03:25:20;3.20;;;2.60;;
75760;SDS011;64373;46.136;8.830;2023-07-09T03:27:49;3.05;;;2.67;;
75760;SDS011;64373;46.136;8.830;2023-07-09T03:30:14;4.50;;;3.72;;
75760;SDS011;64373;46.136;8.830;2023-07-09T03:32:40;6.15;;;3.90;;
75760;SDS011;64373;46.136;8.830;2023-07-09T03:35:07;4.72;;;3.70;;
75760;SDS011;64373;46.136;8.830;2023-07-09T03:37:33;4.70;;;3.67;;
75760;SDS011;64373;46.136;8.830;2023-07-09T03:39:59;3.42;;;2.72;;
75760;SDS011;64373;46.136;8.830;2023-07-09T03:42:25;4.25;;;2.92;;
75760;SDS011;64373;46.136;8.830;2023-07-09T03:44:50;4.03;;;3.05;;
75760;SDS011;64373;46.136;8.830;2023-07-09T03:47:16;5.47;;;3.15;;
75760;SDS011;64373;46.136;8.830;2023-07-09T03:49:43;3.50;;;3.03;;
75760;SDS011;64373;46.136;8.830;2023-07-09T03:52:08;2.88;;;2.50;;
75760;SDS011;64373;46.136;8.830;2023-07-09T03:54:34;3.20;;;2.83;;
75760;SDS011;64373;46.136;8.830;2023-07-09T03:57:00;3.50;;;2.60;;
75760;SDS011;64373;46.136;8.830;2023-07-09T03:59:25;3.95;;;3.08;;
75760;SDS011;64373;46.136;8.830;2023-07-09T04:01:51;3.75;;;2.80;;
75760;SDS011;64373;46.136;8.830;2023-07-09T04:04:16;4.10;;;3.00;;
75760;SDS011;64373;46.136;8.830;2023-07-09T04:06:45;3.50;;;2.78;;
75760;SDS011;64373;46.136;8.830;2023-07-09T04:09:12;5.63;;;3.00;;
75760;SDS011;64373;46.136;8.830;2023-07-09T04:11:37;3.63;;;2.83;;
75760;SDS011;64373;46.136;8.830;2023-07-09T04:14:03;3.40;;;2.53;;
75760;SDS011;64373;46.136;8.830;2023-07-09T04:16:29;2.72;;;2.40;;
75760;SDS011;64373;46.136;8.830;2023-07-09T04:18:54;3.28;;;2.80;;
75760;SDS011;64373;46.136;8.830;2023-07-09T04:21:20;3.75;;;2.80;;
75760;SDS011;64373;46.136;8.830;2023-07-09T04:23:45;3.83;;;2.80;;
75760;SDS011;64373;46.136;8.830;2023-07-09T04:26:14;3.00;;;2.42;;
75760;SDS011;64373;46.136;8.830;2023-07-09T04:28:40;3.30;;;2.42;;
75760;SDS011;64373;46.136;8.830;2023-07-09T04:31:05;2.67;;;2.35;;
75760;SDS011;64373;46.136;8.830;2023-07-09T04:33:31;3.22;;;2.42;;
75760;SDS011;64373;46.136;8.830;2023-07-09T04:35:56;3.45;;;2.60;;
75760;SDS011;64373;46.136;8.830;2023-07-09T04:38:22;3.20;;;2.65;;
75760;SDS011;64373;46.136;8.830;2023-07-09T04:40:48;5.35;;;3.47;;
75760;SDS011;64373;46.136;8.830;2023-07-09T04:43:13;3.45;;;2.50;;
75760;SDS011;64373;46.136;8.830;2023-07-09T04:45:39;2.75;;;2.53;;
75760;SDS011;64373;46.136;8.830;2023-07-09T04:48:04;3.10;;;2.78;;
75760;SDS011;64373;46.136;8.830;2023-07-09T04:50:31;2.80;;;2.38;;
75760;SDS011;64373;46.136;8.830;2023-07-09T04:52:59;3.13;;;2.50;;
75760;SDS011;64373;46.136;8.830;2023-07-09T04:55:25;3.03;;;2.83;;
75760;SDS011;64373;46.136;8.830;2023-07-09T04:57:51;2.47;;;2.03;;
75760;SDS011;64373;46.136;8.830;2023-07-09T05:00:17;3.65;;;2.35;;
75760;SDS011;64373;46.136;8.830;2023-07-09T05:02:43;3.85;;;2.45;;
75760;SDS011;64373;46.136;8.830;2023-07-09T05:05:08;2.42;;;2.22;;
75760;SDS011;64373;46.136;8.830;2023-07-09T05:07:34;2.95;;;2.65;;
75760;SDS011;64373;46.136;8.830;2023-07-09T05:09:59;3.35;;;2.90;;
75760;SDS011;64373;46.136;8.830;2023-07-09T05:12:26;2.45;;;2.10;;
75760;SDS011;64373;46.136;8.830;2023-07-09T05:14:52;2.40;;;2.10;;
75760;SDS011;64373;46.136;8.830;2023-07-09T05:17:17;2.88;;;2.30;;
75760;SDS011;64373;46.136;8.830;2023-07-09T05:19:43;2.58;;;2.20;;
75760;SDS011;64373;46.136;8.830;2023-07-09T05:22:08;5.05;;;3.90;;
75760;SDS011;64373;46.136;8.830;2023-07-09T05:24:34;5.00;;;3.42;;
75760;SDS011;64373;46.136;8.830;2023-07-09T05:27:00;3.20;;;2.53;;
75760;SDS011;64373;46.136;8.830;2023-07-09T05:29:25;4.45;;;3.08;;
75760;SDS011;64373;46.136;8.830;2023-07-09T05:31:52;3.95;;;2.72;;
75760;SDS011;64373;46.136;8.830;2023-07-09T05:34:17;4.25;;;2.78;;
75760;SDS011;64373;46.136;8.830;2023-07-09T05:36:43;3.40;;;3.10;;
75760;SDS011;64373;46.136;8.830;2023-07-09T05:39:09;6.05;;;3.40;;
75760;SDS011;64373;46.136;8.830;2023-07-09T05:41:35;5.07;;;3.78;;
75760;SDS011;64373;46.136;8.830;2023-07-09T05:44:01;4.03;;;3.35;;
75760;SDS011;64373;46.136;8.830;2023-07-09T05:46:27;5.45;;;4.35;;
75760;SDS011;64373;46.136;8.830;2023-07-09T05:48:52;4.70;;;3.83;;
75760;SDS011;64373;46.136;8.830;2023-07-09T05:51:18;5.68;;;3.58;;
75760;SDS011;64373;46.136;8.830;2023-07-09T05:53:43;4.70;;;3.78;;
75760;SDS011;64373;46.136;8.830;2023-07-09T05:56:09;4.63;;;3.78;;
75760;SDS011;64373;46.136;8.830;2023-07-09T05:58:35;5.10;;;3.47;;
75760;SDS011;64373;46.136;8.830;2023-07-09T06:01:01;4.97;;;4.20;;
75760;SDS011;64373;46.136;8.830;2023-07-09T06:03:28;6.25;;;4.50;;
75760;SDS011;64373;46.136;8.830;2023-07-09T06:05:54;5.22;;;4.28;;
75760;SDS011;64373;46.136;8.830;2023-07-09T06:08:22;4.55;;;3.78;;
75760;SDS011;64373;46.136;8.830;2023-07-09T06:10:57;4.18;;;3.72;;
75760;SDS011;64373;46.136;8.830;2023-07-09T06:13:26;6.90;;;4.32;;
75760;SDS011;64373;46.136;8.830;2023-07-09T06:15:52;6.35;;;4.03;;
75760;SDS011;64373;46.136;8.830;2023-07-09T06:18:19;4.43;;;3.60;;
75760;SDS011;64373;46.136;8.830;2023-07-09T06:20:46;4.35;;;3.80;;
75760;SDS011;64373;46.136;8.830;2023-07-09T06:23:15;5.63;;;3.85;;
75760;SDS011;64373;46.136;8.830;2023-07-09T06:25:41;5.53;;;3.58;;
75760;SDS011;64373;46.136;8.830;2023-07-09T06:28:07;5.88;;;3.80;;
75760;SDS011;64373;46.136;8.830;2023-07-09T06:30:33;6.45;;;3.95;;
75760;SDS011;64373;46.136;8.830;2023-07-09T06:32:59;4.18;;;3.20;;
75760;SDS011;64373;46.136;8.830;2023-07-09T06:35:24;4.15;;;3.72;;
75760;SDS011;64373;46.136;8.830;2023-07-09T06:37:50;3.75;;;3.25;;
75760;SDS011;64373;46.136;8.830;2023-07-09T06:40:15;5.38;;;3.55;;
75760;SDS011;64373;46.136;8.830;2023-07-09T06:42:41;3.83;;;3.33;;
75760;SDS011;64373;46.136;8.830;2023-07-09T06:45:07;3.55;;;3.25;;
75760;SDS011;64373;46.136;8.830;2023-07-09T06:47:33;3.72;;;3.33;;
75760;SDS011;64373;46.136;8.830;2023-07-09T06:49:58;4.05;;;3.50;;
75760;SDS011;64373;46.136;8.830;2023-07-09T06:52:24;5.25;;;3.90;;
75760;SDS011;64373;46.136;8.830;2023-07-09T06:54:49;3.97;;;3.40;;
75760;SDS011;64373;46.136;8.830;2023-07-09T06:57:15;4.80;;;3.63;;
75760;SDS011;64373;46.136;8.830;2023-07-09T06:59:40;3.90;;;3.30;;
75760;SDS011;64373;46.136;8.830;2023-07-09T07:02:06;5.03;;;3.97;;
75760;SDS011;64373;46.136;8.830;2023-07-09T07:04:32;3.80;;;3.25;;
75760;SDS011;64373;46.136;8.830;2023-07-09T07:06:58;3.90;;;3.50;;
75760;SDS011;64373;46.136;8.830;2023-07-09T07:09:23;4.28;;;2.90;;
75760;SDS011;64373;46.136;8.830;2023-07-09T07:11:49;3.75;;;3.35;;
75760;SDS011;64373;46.136;8.830;2023-07-09T07:14:15;4.40;;;4.00;;
75760;SDS011;64373;46.136;8.830;2023-07-09T07:16:41;5.50;;;4.22;;
75760;SDS011;64373;46.136;8.830;2023-07-09T07:19:06;6.35;;;4.38;;
75760;SDS011;64373;46.136;8.830;2023-07-09T07:21:32;4.85;;;4.35;;
75760;SDS011;64373;46.136;8.830;2023-07-09T07:23:57;5.85;;;4.10;;
75760;SDS011;64373;46.136;8.830;2023-07-09T07:26:23;5.32;;;3.75;;
75760;SDS011;64373;46.136;8.830;2023-07-09T07:28:48;5.18;;;4.18;;
75760;SDS011;64373;46.136;8.830;2023-07-09T07:31:15;4.55;;;3.80;;
75760;SDS011;64373;46.136;8.830;2023-07-09T07:33:42;4.97;;;4.10;;
75760;SDS011;64373;46.136;8.830;2023-07-09T07:36:07;4.40;;;3.60;;
75760;SDS011;64373;46.136;8.830;2023-07-09T07:38:33;5.05;;;3.17;;
75760;SDS011;64373;46.136;8.830;2023-07-09T07:41:00;4.55;;;3.50;;
75760;SDS011;64373;46.136;8.830;2023-07-09T07:43:26;7.65;;;4.40;;
75760;SDS011;64373;46.136;8.830;2023-07-09T07:45:51;4.82;;;3.85;;
75760;SDS011;64373;46.136;8.830;2023-07-09T07:48:17;5.03;;;4.20;;
75760;SDS011;64373;46.136;8.830;2023-07-09T07:50:42;5.18;;;3.80;;
75760;SDS011;64373;46.136;8.830;2023-07-09T07:53:11;6.32;;;4.20;;
75760;SDS011;64373;46.136;8.830;2023-07-09T07:55:37;6.78;;;4.30;;
75760;SDS011;64373;46.136;8.830;2023-07-09T07:58:03;5.28;;;4.35;;
75760;SDS011;64373;46.136;8.830;2023-07-09T08:00:29;3.95;;;3.53;;
75760;SDS011;64373;46.136;8.830;2023-07-09T08:02:55;4.85;;;3.80;;
75760;SDS011;64373;46.136;8.830;2023-07-09T08:05:20;5.50;;;4.28;;
75760;SDS011;64373;46.136;8.830;2023-07-09T08:07:47;6.65;;;4.50;;
75760;SDS011;64373;46.136;8.830;2023-07-09T08:10:12;4.82;;;4.20;;
75760;SDS011;64373;46.136;8.830;2023-07-09T08:12:38;5.43;;;4.28;;
75760;SDS011;64373;46.136;8.830;2023-07-09T08:15:04;4.53;;;4.13;;
75760;SDS011;64373;46.136;8.830;2023-07-09T08:17:31;6.05;;;4.05;;
75760;SDS011;64373;46.136;8.830;2023-07-09T08:19:57;4.28;;;3.88;;
75760;SDS011;64373;46.136;8.830;2023-07-09T08:22:22;5.00;;;4.25;;
75760;SDS011;64373;46.136;8.830;2023-07-09T08:24:48;5.72;;;3.80;;
75760;SDS011;64373;46.136;8.830;2023-07-09T08:27:14;4.53;;;3.45;;
75760;SDS011;64373;46.136;8.830;2023-07-09T08:29:40;5.20;;;3.85;;
75760;SDS011;64373;46.136;8.830;2023-07-09T08:32:07;4.03;;;3.63;;
75760;SDS011;64373;46.136;8.830;2023-07-09T08:34:33;3.83;;;3.50;;
75760;SDS011;64373;46.136;8.830;2023-07-09T08:36:59;4.97;;;4.20;;
75760;SDS011;64373;46.136;8.830;2023-07-09T08:39:25;4.95;;;4.10;;
75760;SDS011;64373;46.136;8.830;2023-07-09T08:50:27;6.30;;;3.72;;
75760;SDS011;64373;46.136;8.830;2023-07-09T08:53:21;4.57;;;3.60;;
75760;SDS011;64373;46.136;8.830;2023-07-09T08:55:52;4.07;;;3.47;;
75760;SDS011;64373;46.136;8.830;2023-07-09T08:58:20;4.18;;;3.72;;
75760;SDS011;64373;46.136;8.830;2023-07-09T09:00:55;4.25;;;3.78;;
75760;SDS011;64373;46.136;8.830;2023-07-09T09:03:35;5.63;;;4.13;;
75760;SDS011;64373;46.136;8.830;2023-07-09T09:06:18;6.40;;;4.15;;
75760;SDS011;64373;46.136;8.830;2023-07-09T09:11:44;4.45;;;3.88;;
75760;SDS011;64373;46.136;8.830;2023-07-09T09:14:18;5.25;;;4.10;;
75760;SDS011;64373;46.136;8.830;2023-07-09T09:16:55;6.13;;;4.32;;
75760;SDS011;64373;46.136;8.830;2023-07-09T09:20:08;4.53;;;3.58;;
75760;SDS011;64373;46.136;8.830;2023-07-09T09:22:12;4.55;;;4.10;;
75760;SDS011;64373;46.136;8.830;2023-07-09T09:27:17;7.10;;;4.10;;
75760;SDS011;64373;46.136;8.830;2023-07-09T09:29:43;4.80;;;3.88;;
75760;SDS011;64373;46.136;8.830;2023-07-09T09:32:27;4.25;;;3.70;;
75760;SDS011;64373;46.136;8.830;2023-07-09T09:34:54;5.68;;;3.75;;
75760;SDS011;64373;46.136;8.830;2023-07-09T09:37:25;5.13;;;3.95;;
75760;SDS011;64373;46.136;8.830;2023-07-09T09:39:55;3.63;;;3.33;;
75760;SDS011;64373;46.136;8.830;2023-07-09T09:42:23;4.82;;;3.95;;
75760;SDS011;64373;46.136;8.830;2023-07-09T09:44:50;4.88;;;3.78;;
75760;SDS011;64373;46.136;8.830;2023-07-09T09:47:18;3.97;;;3.58;;
75760;SDS011;64373;46.136;8.830;2023-07-09T09:49:44;5.35;;;4.40;;
75760;SDS011;64373;46.136;8.830;2023-07-09T09:52:13;4.50;;;4.10;;
75760;SDS011;64373;46.136;8.830;2023-07-09T09:54:40;4.82;;;4.15;;
75760;SDS011;64373;46.136;8.830;2023-07-09T09:57:16;4.63;;;3.75;;
75760;SDS011;64373;46.136;8.830;2023-07-09T09:59:42;5.25;;;3.35;;
75760;SDS011;64373;46.136;8.830;2023-07-09T10:02:16;4.60;;;4.20;;
75760;SDS011;64373;46.136;8.830;2023-07-09T10:04:43;4.10;;;3.70;;
75760;SDS011;64373;46.136;8.830;2023-07-09T10:07:19;6.00;;;4.32;;
75760;SDS011;64373;46.136;8.830;2023-07-09T10:09:52;5.47;;;4.22;;
75760;SDS011;64373;46.136;8.830;2023-07-09T10:18:02;7.90;;;4.05;;
75760;SDS011;64373;46.136;8.830;2023-07-09T10:20:34;4.15;;;3.75;;
75760;SDS011;64373;46.136;8.830;2023-07-09T10:25:57;3.88;;;3.30;;
75760;SDS011;64373;46.136;8.830;2023-07-09T10:31:12;5.80;;;4.03;;
75760;SDS011;64373;46.136;8.830;2023-07-09T10:39:24;6.32;;;3.75;;
75760;SDS011;64373;46.136;8.830;2023-07-09T10:41:55;4.38;;;3.75;;
75760;SDS011;64373;46.136;8.830;2023-07-09T10:47:05;6.53;;;4.07;;
75760;SDS011;64373;46.136;8.830;2023-07-09T10:49:36;6.35;;;3.83;;
75760;SDS011;64373;46.136;8.830;2023-07-09T10:55:26;5.32;;;3.85;;
75760;SDS011;64373;46.136;8.830;2023-07-09T11:00:35;3.90;;;3.42;;
75760;SDS011;64373;46.136;8.830;2023-07-09T11:03:10;4.00;;;3.60;;
75760;SDS011;64373;46.136;8.830;2023-07-09T11:05:58;5.10;;;3.78;;
75760;SDS011;64373;46.136;8.830;2023-07-09T11:08:25;3.83;;;3.28;;
75760;SDS011;64373;46.136;8.830;2023-07-09T11:10:59;4.45;;;3.78;;
75760;SDS011;64373;46.136;8.830;2023-07-09T11:15:58;4.15;;;3.47;;
75760;SDS011;64373;46.136;8.830;2023-07-09T11:18:32;4.10;;;3.70;;
75760;SDS011;64373;46.136;8.830;2023-07-09T11:21:00;5.90;;;4.18;;
75760;SDS011;64373;46.136;8.830;2023-07-09T11:23:37;6.07;;;4.10;;
75760;SDS011;64373;46.136;8.830;2023-07-09T11:26:14;5.43;;;4.28;;
75760;SDS011;64373;46.136;8.830;2023-07-09T11:28:54;4.38;;;3.70;;
75760;SDS011;64373;46.136;8.830;2023-07-09T11:34:00;4.40;;;3.80;;
75760;SDS011;64373;46.136;8.830;2023-07-09T11:36:32;4.55;;;3.55;;
75760;SDS011;64373;46.136;8.830;2023-07-09T11:38:59;4.47;;;3.70;;
75760;SDS011;64373;46.136;8.830;2023-07-09T11:46:33;5.63;;;3.50;;
75760;SDS011;64373;46.136;8.830;2023-07-09T11:49:00;3.92;;;3.63;;
75760;SDS011;64373;46.136;8.830;2023-07-09T11:52:00;4.45;;;4.05;;
75760;SDS011;64373;46.136;8.830;2023-07-09T11:54:19;7.68;;;4.05;;
75760;SDS011;64373;46.136;8.830;2023-07-09T11:56:58;4.03;;;3.42;;
75760;SDS011;64373;46.136;8.830;2023-07-09T11:59:25;4.55;;;3.65;;
75760;SDS011;64373;46.136;8.830;2023-07-09T12:01:51;5.53;;;3.65;;
75760;SDS011;64373;46.136;8.830;2023-07-09T12:04:19;4.10;;;3.65;;
75760;SDS011;64373;46.136;8.830;2023-07-09T12:06:47;4.72;;;3.75;;
75760;SDS011;64373;46.136;8.830;2023-07-09T12:09:18;4.93;;;3.92;;
75760;SDS011;64373;46.136;8.830;2023-07-09T12:11:46;4.20;;;3.63;;
75760;SDS011;64373;46.136;8.830;2023-07-09T12:14:14;4.43;;;3.97;;
75760;SDS011;64373;46.136;8.830;2023-07-09T12:16:41;4.90;;;3.72;;
75760;SDS011;64373;46.136;8.830;2023-07-09T12:19:16;4.22;;;3.80;;
75760;SDS011;64373;46.136;8.830;2023-07-09T12:21:43;6.43;;;3.60;;
75760;SDS011;64373;46.136;8.830;2023-07-09T12:24:20;5.05;;;3.90;;
75760;SDS011;64373;46.136;8.830;2023-07-09T12:26:55;4.38;;;3.97;;
75760;SDS011;64373;46.136;8.830;2023-07-09T12:29:27;5.15;;;4.32;;
75760;SDS011;64373;46.136;8.830;2023-07-09T12:31:57;4.32;;;3.92;;
75760;SDS011;64373;46.136;8.830;2023-07-09T12:34:23;4.10;;;3.70;;
75760;SDS011;64373;46.136;8.830;2023-07-09T12:36:50;4.88;;;4.05;;
75760;SDS011;64373;46.136;8.830;2023-07-09T12:39:19;5.15;;;3.80;;
75760;SDS011;64373;46.136;8.830;2023-07-09T12:41:51;4.10;;;3.70;;
75760;SDS011;64373;46.136;8.830;2023-07-09T12:44:21;4.82;;;3.97;;
75760;SDS011;64373;46.136;8.830;2023-07-09T12:46:47;4.30;;;3.90;;
75760;SDS011;64373;46.136;8.830;2023-07-09T12:49:38;5.32;;;4.07;;
75760;SDS011;64373;46.136;8.830;2023-07-09T12:52:09;4.80;;;3.40;;
75760;SDS011;64373;46.136;8.830;2023-07-09T12:54:39;4.65;;;3.42;;
75760;SDS011;64373;46.136;8.830;2023-07-09T12:57:13;5.32;;;4.05;;
75760;SDS011;64373;46.136;8.830;2023-07-09T12:59:42;4.15;;;3.75;;
75760;SDS011;64373;46.136;8.830;2023-07-09T13:02:24;5.82;;;3.95;;
75760;SDS011;64373;46.136;8.830;2023-07-09T13:04:59;4.05;;;3.53;;
75760;SDS011;64373;46.136;8.830;2023-07-09T13:07:31;4.90;;;4.40;;
75760;SDS011;64373;46.136;8.830;2023-07-09T13:10:04;4.05;;;3.65;;
75760;SDS011;64373;46.136;8.830;2023-07-09T13:12:33;4.10;;;3.70;;
75760;SDS011;64373;46.136;8.830;2023-07-09T13:14:59;6.30;;;3.95;;
75760;SDS011;64373;46.136;8.830;2023-07-09T13:17:28;4.35;;;3.88;;
75760;SDS011;64373;46.136;8.830;2023-07-09T13:19:55;4.65;;;3.83;;
75760;SDS011;64373;46.136;8.830;2023-07-09T13:22:22;4.30;;;3.90;;
75760;SDS011;64373;46.136;8.830;2023-07-09T13:24:47;4.07;;;3.45;;
75760;SDS011;64373;46.136;8.830;2023-07-09T13:27:13;4.10;;;3.45;;
75760;SDS011;64373;46.136;8.830;2023-07-09T13:29:40;4.93;;;4.43;;
75760;SDS011;64373;46.136;8.830;2023-07-09T13:32:10;5.00;;;3.80;;
75760;SDS011;64373;46.136;8.830;2023-07-09T13:34:36;4.55;;;3.50;;
75760;SDS011;64373;46.136;8.830;2023-07-09T13:37:04;4.57;;;3.78;;
75760;SDS011;64373;46.136;8.830;2023-07-09T13:39:30;5.38;;;3.85;;
75760;SDS011;64373;46.136;8.830;2023-07-09T13:41:56;3.92;;;3.47;;
75760;SDS011;64373;46.136;8.830;2023-07-09T13:44:26;4.55;;;4.15;;
75760;SDS011;64373;46.136;8.830;2023-07-09T13:46:53;6.13;;;4.30;;
75760;SDS011;64373;46.136;8.830;2023-07-09T13:49:21;4.60;;;3.83;;
75760;SDS011;64373;46.136;8.830;2023-07-09T13:51:50;6.15;;;4.13;;
75760;SDS011;64373;46.136;8.830;2023-07-09T13:54:19;5.15;;;3.72;;
75760;SDS011;64373;46.136;8.830;2023-07-09T13:56:47;4.68;;;4.03;;
75760;SDS011;64373;46.136;8.830;2023-07-09T13:59:15;4.68;;;3.70;;
75760;SDS011;64373;46.136;8.830;2023-07-09T14:01:42;4.75;;;3.67;;
75760;SDS011;64373;46.136;8.830;2023-07-09T14:04:09;4.65;;;4.15;;
75760;SDS011;64373;46.136;8.830;2023-07-09T14:06:36;4.60;;;4.20;;
75760;SDS011;64373;46.136;8.830;2023-07-09T14:09:02;4.80;;;3.95;;
75760;SDS011;64373;46.136;8.830;2023-07-09T14:11:28;6.60;;;4.15;;
75760;SDS011;64373;46.136;8.830;2023-07-09T14:13:53;4.32;;;3.92;;
75760;SDS011;64373;46.136;8.830;2023-07-09T14:16:19;4.75;;;4.15;;
75760;SDS011;64373;46.136;8.830;2023-07-09T14:18:45;5.30;;;3.78;;
75760;SDS011;64373;46.136;8.830;2023-07-09T14:21:14;3.92;;;3.53;;
75760;SDS011;64373;46.136;8.830;2023-07-09T14:23:42;4.15;;;3.67;;
75760;SDS011;64373;46.136;8.830;2023-07-09T14:26:09;4.05;;;3.42;;
75760;SDS011;64373;46.136;8.830;2023-07-09T14:28:35;4.28;;;3.58;;
75760;SDS011;64373;46.136;8.830;2023-07-09T14:31:03;3.30;;;3.00;;
75760;SDS011;64373;46.136;8.830;2023-07-09T14:33:29;8.07;;;4.57;;
75760;SDS011;64373;46.136;8.830;2023-07-09T14:35:55;6.65;;;4.03;;
75760;SDS011;64373;46.136;8.830;2023-07-09T14:38:24;4.43;;;4.03;;
75760;SDS011;64373;46.136;8.830;2023-07-09T14:43:16;4.60;;;4.00;;
75760;SDS011;64373;46.136;8.830;2023-07-09T14:45:42;5.10;;;4.38;;
75760;SDS011;64373;46.136;8.830;2023-07-09T14:48:12;4.90;;;4.05;;
75760;SDS011;64373;46.136;8.830;2023-07-09T14:50:40;4.60;;;4.15;;
75760;SDS011;64373;46.136;8.830;2023-07-09T14:53:13;4.53;;;4.13;;
75760;SDS011;64373;46.136;8.830;2023-07-09T14:55:45;3.72;;;3.33;;
75760;SDS011;64373;46.136;8.830;2023-07-09T14:58:15;4.68;;;4.05;;
75760;SDS011;64373;46.136;8.830;2023-07-09T15:00:45;5.38;;;3.85;;
75760;SDS011;64373;46.136;8.830;2023-07-09T15:03:12;4.30;;;3.80;;
75760;SDS011;64373;46.136;8.830;2023-07-09T15:05:43;4.30;;;3.90;;
75760;SDS011;64373;46.136;8.830;2023-07-09T15:08:19;4.68;;;3.88;;
75760;SDS011;64373;46.136;8.830;2023-07-09T15:10:49;3.60;;;3.22;;
75760;SDS011;64373;46.136;8.830;2023-07-09T15:13:16;5.47;;;3.80;;
75760;SDS011;64373;46.136;8.830;2023-07-09T15:15:50;5.93;;;4.53;;
75760;SDS011;64373;46.136;8.830;2023-07-09T15:18:15;5.20;;;4.07;;
75760;SDS011;64373;46.136;8.830;2023-07-09T15:20:45;5.05;;;4.10;;
75760;SDS011;64373;46.136;8.830;2023-07-09T15:23:13;4.07;;;3.60;;
75760;SDS011;64373;46.136;8.830;2023-07-09T15:25:39;6.20;;;4.07;;
75760;SDS011;64373;46.136;8.830;2023-07-09T15:28:04;4.75;;;3.80;;
75760;SDS011;64373;46.136;8.830;2023-07-09T15:30:30;4.32;;;3.92;;
75760;SDS011;64373;46.136;8.830;2023-07-09T15:32:57;4.55;;;3.55;;
75760;SDS011;64373;46.136;8.830;2023-07-09T15:35:25;4.30;;;3.90;;
75760;SDS011;64373;46.136;8.830;2023-07-09T15:37:54;4.55;;;4.05;;
75760;SDS011;64373;46.136;8.830;2023-07-09T15:40:23;6.15;;;3.92;;
75760;SDS011;64373;46.136;8.830;2023-07-09T15:42:51;4.40;;;3.60;;
75760;SDS011;64373;46.136;8.830;2023-07-09T15:45:19;3.92;;;3.53;;
75760;SDS011;64373;46.136;8.830;2023-07-09T15:47:46;3.88;;;3.17;;
75760;SDS011;64373;46.136;8.830;2023-07-09T15:50:17;4.57;;;3.72;;
75760;SDS011;64373;46.136;8.830;2023-07-09T15:52:48;4.63;;;3.45;;
75760;SDS011;64373;46.136;8.830;2023-07-09T15:55:16;3.65;;;3.33;;